createdAt,value
2019-04-26T00:01:31.970Z,88.88
2019-04-26T00:04:03.693Z,88.07
2019-04-26T00:06:34.153Z,87.04
2019-04-26T00:09:27.622Z,85.84
2019-04-26T00:12:20.415Z,87.12
2019-04-26T00:15:13.215Z,87.41
2019-04-26T00:17:48.001Z,88.31
2019-04-26T00:20:19.136Z,87.46
2019-04-26T00:22:50.150Z,87.12
2019-04-26T00:25:20.701Z,86.15
2019-04-26T00:27:51.332Z,87.49
2019-04-26T00:30:21.938Z,87.56
2019-04-26T00:32:52.652Z,87.12
2019-04-26T00:35:23.592Z,86.82
2019-04-26T00:37:54.182Z,85.30
2019-04-26T00:40:28.047Z,84.51
2019-04-26T00:43:00.284Z,84.88
2019-04-26T00:45:34.719Z,86.66
2019-04-26T00:48:06.540Z,85.97
2019-04-26T00:50:37.861Z,86.69
2019-04-26T00:53:09.771Z,86.85
2019-04-26T00:55:40.431Z,86.16
2019-04-26T00:58:12.279Z,86.33
2019-04-26T01:00:45.640Z,85.05
2019-04-26T01:03:16.642Z,86.65
2019-04-26T01:05:59.239Z,86.10
2019-04-26T01:08:19.472Z,85.25
2019-04-26T01:10:50.045Z,86.61
2019-04-26T01:13:21.951Z,88.30
2019-04-26T01:15:52.706Z,89.26
2019-04-26T01:18:24.348Z,90.25
2019-04-26T01:21:01.437Z,90.97
2019-04-26T01:23:36.475Z,90.70
2019-04-26T01:26:21.157Z,89.29
2019-04-26T01:29:01.281Z,87.67
2019-04-26T01:31:38.130Z,86.72
2019-04-26T01:34:09.241Z,87.12
2019-04-26T01:36:42.627Z,88.74
2019-04-26T01:39:23.807Z,87.74
2019-04-26T01:42:14.883Z,85.96
2019-04-26T01:45:01.405Z,86.66
2019-04-26T01:47:32.712Z,87.00
2019-04-26T01:50:03.936Z,87.77
2019-04-26T01:52:34.673Z,88.88
2019-04-26T01:55:27.056Z,87.11
2019-04-26T01:57:59.756Z,86.57
2019-04-26T02:00:49.901Z,85.17
2019-04-26T02:03:25.582Z,85.79
2019-04-26T02:05:56.433Z,87.09
2019-04-26T02:08:30.941Z,87.49
2019-04-26T02:11:01.623Z,86.25
2019-04-26T02:13:33.048Z,86.48
2019-04-26T02:16:03.599Z,87.69
2019-04-26T02:18:34.552Z,86.93
2019-04-26T02:21:26.514Z,87.50
2019-04-26T02:24:13.033Z,88.65
2019-04-26T02:26:45.931Z,89.31
2019-04-26T02:29:22.527Z,90.13
2019-04-26T02:31:57.978Z,89.84
2019-04-26T02:34:31.754Z,88.76
2019-04-26T02:37:05.452Z,88.27
2019-04-26T02:39:40.939Z,87.62
2019-04-26T02:42:38.034Z,87.28
2019-04-26T02:45:51.580Z,85.85
2019-04-26T02:48:44.497Z,85.43
2019-04-26T02:51:22.536Z,85.95
2019-04-26T02:54:15.511Z,86.59
2019-04-26T02:56:49.271Z,90.01
2019-04-26T02:59:40.783Z,89.84
2019-04-26T03:02:25.167Z,87.60
2019-04-26T03:05:04.916Z,87.80
2019-04-26T03:08:15.326Z,87.27
2019-04-26T03:11:17.799Z,87.42
2019-04-26T03:13:58.369Z,85.79
2019-04-26T03:16:48.648Z,86.66
2019-04-26T03:19:40.333Z,86.78
2019-04-26T03:22:27.139Z,86.59
2019-04-26T03:25:24.114Z,87.91
2019-04-26T03:28:12.422Z,88.36
2019-04-26T03:30:57.197Z,88.39
2019-04-26T03:34:01.824Z,87.98
2019-04-26T03:37:36.536Z,88.17
2019-04-26T03:40:47.610Z,89.29
2019-04-26T03:43:55.954Z,88.90
2019-04-26T03:46:43.080Z,90.97
2019-04-26T03:49:57.481Z,89.22
2019-04-26T03:53:18.036Z,87.05
2019-04-26T03:57:19.093Z,87.02
2019-04-26T04:00:23.460Z,86.69
2019-04-26T04:03:26.657Z,85.99
2019-04-26T04:05:59.456Z,88.16
2019-04-26T04:08:56.405Z,87.49
2019-04-26T04:11:38.620Z,88.04
2019-04-26T04:14:23.840Z,89.41
2019-04-26T04:17:25.300Z,89.65
2019-04-26T04:20:40.874Z,90.21
2019-04-26T04:24:00.295Z,89.91
2019-04-26T04:27:21.110Z,89.80
2019-04-26T04:30:30.679Z,89.25
2019-04-26T04:33:43.083Z,87.43
2019-04-26T04:36:34.422Z,90.39
2019-04-26T04:39:30.399Z,89.91
2019-04-26T04:43:01.634Z,88.34
2019-04-26T04:46:26.051Z,88.67
2019-04-26T04:49:22.188Z,87.27
2019-04-26T04:52:28.504Z,87.24
2019-04-26T04:55:16.144Z,86.89
2019-04-26T04:58:22.879Z,85.67
2019-04-26T05:01:37.942Z,84.65
2019-04-26T05:04:24.398Z,84.70
2019-04-26T05:07:40.688Z,83.72
2019-04-26T05:10:23.176Z,84.37
2019-04-26T05:13:42.463Z,86.05
2019-04-26T05:17:07.247Z,86.81
2019-04-26T05:20:05.028Z,88.74
2019-04-26T05:23:14.663Z,89.03
2019-04-26T05:26:47.483Z,88.01
2019-04-26T05:30:04.650Z,88.87
2019-04-26T05:33:24.868Z,90.35
2019-04-26T05:36:24.822Z,90.83
2019-04-26T05:39:27.372Z,90.97
2019-04-26T05:42:48.270Z,92.17
2019-04-26T05:46:17.419Z,92.69
2019-04-26T05:49:46.931Z,92.02
2019-04-26T05:53:50.021Z,89.59
2019-04-26T05:57:18.672Z,87.58
2019-04-26T06:00:25.776Z,87.99
2019-04-26T06:03:33.568Z,87.34
2019-04-26T06:06:49.324Z,86.43
2019-04-26T06:10:05.891Z,85.05
2019-04-26T06:13:02.959Z,83.44
2019-04-26T06:16:00.133Z,81.24
2019-04-26T06:18:59.733Z,79.14
2019-04-26T06:22:18.809Z,79.62
2019-04-26T06:25:35.724Z,81.85
2019-04-26T06:28:39.639Z,83.16
2019-04-26T06:31:27.951Z,78.81
2019-04-26T06:34:40.491Z,76.19
2019-04-26T06:37:35.767Z,72.63
2019-04-26T06:40:25.437Z,70.16
2019-04-26T06:43:26.510Z,68.62
2019-04-26T06:46:47.510Z,66.80
2019-04-26T06:50:15.028Z,68.55
2019-04-26T06:53:24.676Z,69.29
2019-04-26T06:56:19.510Z,69.36
2019-04-26T06:59:21.741Z,71.56
2019-04-26T07:02:02.948Z,71.24
2019-04-26T07:04:59.227Z,73.07
2019-04-26T07:08:34.765Z,72.80
2019-04-26T07:12:21.590Z,72.00
2019-04-26T07:15:52.730Z,70.43
2019-04-26T07:19:21.443Z,71.66
2019-04-26T07:22:37.190Z,72.06
2019-04-26T07:26:08.643Z,71.41
2019-04-26T07:29:26.683Z,73.11
2019-04-26T07:32:42.960Z,74.73
2019-04-26T07:35:31.532Z,76.74
2019-04-26T07:39:33.541Z,76.08
2019-04-26T07:43:06.019Z,74.65
2019-04-26T07:46:44.580Z,73.14
2019-04-26T07:50:32.701Z,72.03
2019-04-26T07:53:44.340Z,71.40
2019-04-26T07:57:06.862Z,70.53
2019-04-26T08:00:14.034Z,66.03
2019-04-26T08:03:15.110Z,65.64
2019-04-26T08:06:11.629Z,61.87
2019-04-26T08:09:24.816Z,58.11
2019-04-26T08:11:53.254Z,58.09
2019-04-26T08:15:21.162Z,59.56
2019-04-26T08:18:03.866Z,56.49
2019-04-26T08:20:48.590Z,59.75
2019-04-26T08:23:41.339Z,61.58
2019-04-26T08:26:16.069Z,62.05
2019-04-26T08:28:50.397Z,63.90
2019-04-26T08:31:26.225Z,63.81
2019-04-26T08:34:04.430Z,63.37
2019-04-26T08:36:44.587Z,63.90
2019-04-26T08:39:32.480Z,62.78
2019-04-26T08:42:01.720Z,62.20
2019-04-26T08:44:45.055Z,62.71
2019-04-26T08:47:37.742Z,63.45
2019-04-26T08:50:16.264Z,61.20
2019-04-26T08:52:51.284Z,59.11
2019-04-26T08:55:24.309Z,59.47
2019-04-26T08:57:59.508Z,60.17
2019-04-26T09:00:46.168Z,59.50
2019-04-26T09:03:32.458Z,58.14
2019-04-26T09:06:16.909Z,56.37
2019-04-26T09:08:51.752Z,54.75
2019-04-26T09:11:30.108Z,55.92
2019-04-26T09:14:01.505Z,53.01
2019-04-26T09:16:32.164Z,49.64
2019-04-26T09:19:02.687Z,45.25
2019-04-26T09:21:47.437Z,44.99
2019-04-26T09:24:34.231Z,43.81
2019-04-26T09:27:35.670Z,43.24
2019-04-26T09:30:33.625Z,46.73
2019-04-26T09:33:07.825Z,46.56
2019-04-26T09:35:38.386Z,45.85
2019-04-26T09:38:08.924Z,43.10
2019-04-26T09:40:40.028Z,42.44
2019-04-26T09:43:28.722Z,41.55
2019-04-26T09:46:23.503Z,42.38
2019-04-26T09:49:22.859Z,36.98
2019-04-26T09:51:54.342Z,33.68
2019-04-26T09:54:24.835Z,37.22
2019-04-26T09:56:55.343Z,38.87
2019-04-26T09:59:25.944Z,35.38
2019-04-26T10:01:59.487Z,33.92
2019-04-26T10:04:29.188Z,36.61
2019-04-26T10:07:03.337Z,38.07
2019-04-26T10:09:33.105Z,34.39
2019-04-26T10:12:15.366Z,32.85
2019-04-26T10:14:54.614Z,29.42
2019-04-26T10:17:30.289Z,27.60
2019-04-26T10:20:00.823Z,28.02
2019-04-26T10:22:33.002Z,34.24
2019-04-26T10:25:08.069Z,37.42
2019-04-26T10:27:36.483Z,32.36
2019-04-26T10:30:10.935Z,34.65
2019-04-26T10:32:41.455Z,39.18
2019-04-26T10:35:12.302Z,45.43
2019-04-26T10:37:43.952Z,49.03
2019-04-26T10:40:15.490Z,51.04
2019-04-26T10:42:45.994Z,45.19
2019-04-26T10:45:17.050Z,36.01
2019-04-26T10:47:47.582Z,33.88
2019-04-26T10:50:18.525Z,31.78
2019-04-26T10:52:55.611Z,28.78
2019-04-26T10:55:46.489Z,31.27
2019-04-26T10:58:37.791Z,34.07
2019-04-26T11:01:13.831Z,44.05
2019-04-26T11:03:45.019Z,50.35
2019-04-26T11:06:15.662Z,51.42
2019-04-26T11:08:46.824Z,53.81
2019-04-26T11:11:17.352Z,57.12
2019-04-26T11:13:47.856Z,57.61
2019-04-26T11:16:18.608Z,57.34
2019-04-26T11:18:49.179Z,58.72
2019-04-26T11:21:20.777Z,58.68
2019-04-26T11:23:52.099Z,57.14
2019-04-26T11:26:22.714Z,53.11
2019-04-26T11:28:55.785Z,54.54
2019-04-26T11:31:27.654Z,53.52
2019-04-26T11:34:05.209Z,53.87
2019-04-26T11:36:30.964Z,53.60
2019-04-26T11:39:05.593Z,52.06
2019-04-26T11:41:34.124Z,52.65
2019-04-26T11:44:06.313Z,52.22
2019-04-26T11:46:44.731Z,50.48
2019-04-26T11:49:09.151Z,47.45
2019-04-26T11:51:39.672Z,47.29
2019-04-26T11:54:10.564Z,45.69
2019-04-26T11:56:41.239Z,48.64
2019-04-26T11:59:11.875Z,48.78
2019-04-26T12:01:42.409Z,47.82
2019-04-26T12:04:40.712Z,49.87
2019-04-26T12:07:29.672Z,49.72
2019-04-26T12:10:05.964Z,52.31
2019-04-26T12:12:35.530Z,50.07
2019-04-26T12:15:08.554Z,47.46
2019-04-26T12:17:38.481Z,47.84
2019-04-26T12:20:09.213Z,51.00
2019-04-26T12:22:43.398Z,53.12
2019-04-26T12:25:12.313Z,55.21
2019-04-26T12:27:43.001Z,56.40
2019-04-26T12:30:14.497Z,54.29
2019-04-26T12:32:45.129Z,50.86
2019-04-26T12:35:15.791Z,48.57
2019-04-26T12:37:46.399Z,46.78
2019-04-26T12:40:19.288Z,48.04
2019-04-26T12:42:49.679Z,46.03
2019-04-26T12:45:54.465Z,46.88
2019-04-26T12:48:25.307Z,46.08
2019-04-26T12:50:55.998Z,45.52
2019-04-26T12:53:31.164Z,45.09
2019-04-26T12:55:58.893Z,44.38
2019-04-26T12:58:32.117Z,46.61
2019-04-26T13:01:02.176Z,47.34
2019-04-26T13:03:36.068Z,45.64
2019-04-26T13:06:06.775Z,45.53
2019-04-26T13:08:37.349Z,46.01
2019-04-26T13:11:27.842Z,46.07
2019-04-26T13:14:19.033Z,44.98
2019-04-26T13:17:04.696Z,43.86
2019-04-26T13:19:35.168Z,42.54
2019-04-26T13:22:08.512Z,42.07
2019-04-26T13:24:39.867Z,43.18
2019-04-26T13:27:12.059Z,42.59
2019-04-26T13:29:43.392Z,41.91
2019-04-26T13:32:13.805Z,40.52
2019-04-26T13:34:44.564Z,39.64
2019-04-26T13:37:15.049Z,38.70
2019-04-26T13:39:45.685Z,39.38
2019-04-26T13:42:17.443Z,40.13
2019-04-26T13:45:01.175Z,39.57
2019-04-26T13:47:49.430Z,40.74
2019-04-26T13:50:38.899Z,39.70
2019-04-26T13:53:10.986Z,38.52
2019-04-26T13:55:41.439Z,38.73
2019-04-26T13:58:15.304Z,38.81
2019-04-26T14:00:44.975Z,38.42
2019-04-26T14:03:15.597Z,39.25
2019-04-26T14:05:46.074Z,39.34
2019-04-26T14:08:17.746Z,40.67
2019-04-26T14:10:49.770Z,40.92
2019-04-26T14:13:24.545Z,40.23
2019-04-26T14:15:52.774Z,38.67
2019-04-26T14:18:23.303Z,43.54
2019-04-26T14:20:54.658Z,36.61
2019-04-26T14:23:45.390Z,37.45
2019-04-26T14:26:19.089Z,39.30
2019-04-26T14:28:49.561Z,39.17
2019-04-26T14:31:20.427Z,38.51
2019-04-26T14:33:51.230Z,38.51
2019-04-26T14:36:22.625Z,39.65
2019-04-26T14:39:05.232Z,39.74
2019-04-26T14:41:27.489Z,39.35
2019-04-26T14:43:57.927Z,39.17
2019-04-26T14:46:28.544Z,39.17
2019-04-26T14:49:02.086Z,39.42
2019-04-26T14:51:31.158Z,42.26
2019-04-26T14:54:01.574Z,41.45
2019-04-26T14:56:33.036Z,41.82
2019-04-26T14:59:08.319Z,41.51
2019-04-26T15:01:56.368Z,41.82
2019-04-26T15:04:44.466Z,40.02
2019-04-26T15:07:15.475Z,41.09
2019-04-26T15:09:46.063Z,44.02
2019-04-26T15:12:16.565Z,45.96
2019-04-26T15:14:49.348Z,46.01
2019-04-26T15:17:24.336Z,43.92
2019-04-26T15:19:53.567Z,45.52
2019-04-26T15:22:24.513Z,46.28
2019-04-26T15:24:55.433Z,45.41
2019-04-26T15:27:26.473Z,44.79
2019-04-26T15:29:57.232Z,45.78
2019-04-26T15:32:32.851Z,47.41
2019-04-26T15:35:01.526Z,48.26
2019-04-26T15:37:32.208Z,48.62
2019-04-26T15:40:13.937Z,48.24
2019-04-26T15:43:02.986Z,48.45
2019-04-26T15:45:52.406Z,49.06
2019-04-26T15:48:39.428Z,50.49
2019-04-26T15:51:09.985Z,50.56
2019-04-26T15:53:44.925Z,49.07
2019-04-26T15:56:16.199Z,49.11
2019-04-26T15:58:48.930Z,49.15
2019-04-26T16:01:17.310Z,49.13
2019-04-26T16:03:49.180Z,49.60
2019-04-26T16:06:19.745Z,49.27
2019-04-26T16:08:52.048Z,49.67
2019-04-26T16:11:22.662Z,49.78
2019-04-26T16:13:55.464Z,49.40
2019-04-26T16:16:29.232Z,48.94
2019-04-26T16:18:58.409Z,48.69
2019-04-26T16:21:28.964Z,49.23
2019-04-26T16:23:59.489Z,47.45
2019-04-26T16:26:30.104Z,46.94
2019-04-26T16:29:24.184Z,45.78
2019-04-26T16:32:16.810Z,45.93
2019-04-26T16:34:47.644Z,46.84
2019-04-26T16:37:21.778Z,47.15
2019-04-26T16:39:51.145Z,47.39
2019-04-26T16:42:23.455Z,47.32
2019-04-26T16:44:55.215Z,47.78
2019-04-26T16:47:25.863Z,48.81
2019-04-26T16:50:01.029Z,49.24
2019-04-26T16:52:28.556Z,49.51
2019-04-26T16:55:02.818Z,49.92
2019-04-26T16:57:33.529Z,50.64
2019-04-26T17:00:04.958Z,50.06
2019-04-26T17:02:37.036Z,50.39
2019-04-26T17:05:17.601Z,49.94
2019-04-26T17:07:40.258Z,50.11
2019-04-26T17:10:12.120Z,49.58
2019-04-26T17:12:46.289Z,49.95
2019-04-26T17:15:17.431Z,50.56
2019-04-26T17:17:50.385Z,50.93
2019-04-26T17:20:19.864Z,50.93
2019-04-26T17:23:15.442Z,50.61
2019-04-26T17:26:14.269Z,50.25
2019-04-26T17:28:48.365Z,50.72
2019-04-26T17:31:19.349Z,51.04
2019-04-26T17:33:50.085Z,51.77
2019-04-26T17:36:21.232Z,51.16
2019-04-26T17:38:51.799Z,51.63
2019-04-26T17:41:22.402Z,52.12
2019-04-26T17:44:06.213Z,53.02
2019-04-26T17:46:26.069Z,54.27
2019-04-26T17:48:56.624Z,54.16
2019-04-26T17:51:27.483Z,53.70
2019-04-26T17:54:21.143Z,54.49
2019-04-26T17:56:35.409Z,54.76
2019-04-26T17:59:09.398Z,55.42
2019-04-26T18:01:46.893Z,55.45
2019-04-26T18:04:14.660Z,55.60
2019-04-26T18:06:57.853Z,55.56
2019-04-26T18:09:39.086Z,56.11
2019-04-26T18:11:55.280Z,55.69
2019-04-26T18:14:30.469Z,55.60
2019-04-26T18:17:05.243Z,55.19
2019-04-26T18:20:13.081Z,55.69
2019-04-26T18:22:51.590Z,56.08
2019-04-26T18:25:23.434Z,55.39
2019-04-26T18:27:54.498Z,55.12
2019-04-26T18:30:26.392Z,55.08
2019-04-26T18:32:56.966Z,55.68
2019-04-26T18:35:27.631Z,55.83
2019-04-26T18:37:58.113Z,55.96
2019-04-26T18:40:29.257Z,55.71
2019-04-26T18:42:59.963Z,56.10
2019-04-26T18:45:30.653Z,56.48
2019-04-26T18:48:02.986Z,56.40
2019-04-26T18:50:36.528Z,56.75
2019-04-26T18:53:23.576Z,56.72
2019-04-26T18:55:54.145Z,56.74
2019-04-26T18:58:24.694Z,57.76
2019-04-26T19:00:57.395Z,57.88
2019-04-26T19:03:30.204Z,57.32
2019-04-26T19:06:02.556Z,57.77
2019-04-26T19:08:43.858Z,57.79
2019-04-26T19:11:07.676Z,58.14
2019-04-26T19:14:15.183Z,58.75
2019-04-26T19:17:03.415Z,59.13
2019-04-26T19:19:52.000Z,59.17
2019-04-26T19:22:22.670Z,59.11
2019-04-26T19:24:54.188Z,59.35
2019-04-26T19:27:26.657Z,59.68
2019-04-26T19:29:57.591Z,59.75
2019-04-26T19:32:28.058Z,60.22
2019-04-26T19:35:00.674Z,60.30
2019-04-26T19:37:36.784Z,61.06
2019-04-26T19:40:09.031Z,61.31
2019-04-26T19:42:35.320Z,61.26
2019-04-26T19:45:13.565Z,61.04
2019-04-26T19:48:02.335Z,61.63
2019-04-26T19:50:48.959Z,62.04
2019-04-26T19:53:23.034Z,62.99
2019-04-26T19:56:17.344Z,63.48
2019-04-26T19:58:50.561Z,63.34
2019-04-26T20:01:20.948Z,63.57
2019-04-26T20:03:55.151Z,64.39
2019-04-26T20:06:26.833Z,64.83
2019-04-26T20:08:56.642Z,65.74
2019-04-26T20:11:27.061Z,65.74
2019-04-26T20:13:57.621Z,65.66
2019-04-26T20:16:28.043Z,64.96
2019-04-26T20:18:58.530Z,64.88
2019-04-26T20:21:29.090Z,64.58
2019-04-26T20:24:01.235Z,64.32
2019-04-26T20:26:31.893Z,65.13
2019-04-26T20:29:02.415Z,65.06
2019-04-26T20:31:47.541Z,65.43
2019-04-26T20:34:18.379Z,65.66
2019-04-26T20:36:48.026Z,66.19
2019-04-26T20:39:20.945Z,66.67
2019-04-26T20:42:01.093Z,66.74
2019-04-26T20:44:28.401Z,67.33
2019-04-26T20:46:55.399Z,67.21
2019-04-26T20:49:25.952Z,67.13
2019-04-26T20:51:56.415Z,67.64
2019-04-26T20:54:26.865Z,67.67
2019-04-26T20:56:57.503Z,67.67
2019-04-26T20:59:27.869Z,68.20
2019-04-26T21:02:07.005Z,68.00
2019-04-26T21:04:38.167Z,67.98
2019-04-26T21:07:06.750Z,68.54
2019-04-26T21:09:36.332Z,68.26
2019-04-26T21:12:15.256Z,68.63
2019-04-26T21:14:44.589Z,68.81
2019-04-26T21:17:13.437Z,68.95
2019-04-26T21:19:44.161Z,69.30
2019-04-26T21:22:18.333Z,69.47
2019-04-26T21:24:50.758Z,69.18
2019-04-26T21:27:35.413Z,69.44
2019-04-26T21:30:24.414Z,69.40
2019-04-26T21:33:18.646Z,69.79
2019-04-26T21:36:01.516Z,69.59
2019-04-26T21:38:50.851Z,70.36
2019-04-26T21:41:24.161Z,70.22
2019-04-26T21:43:54.697Z,70.34
2019-04-26T21:46:25.193Z,70.50
2019-04-26T21:48:55.717Z,70.67
2019-04-26T21:51:26.192Z,70.62
2019-04-26T21:53:56.791Z,70.74
2019-04-26T21:56:27.227Z,71.01
2019-04-26T21:58:57.735Z,71.40
2019-04-26T22:01:30.413Z,71.42
2019-04-26T22:04:01.009Z,71.38
2019-04-26T22:06:33.320Z,71.47
2019-04-26T22:09:15.908Z,71.69
2019-04-26T22:11:49.393Z,71.49
2019-04-26T22:14:25.637Z,71.69
2019-04-26T22:17:02.169Z,71.92
2019-04-26T22:19:43.335Z,71.88
2019-04-26T22:22:28.534Z,72.01
2019-04-26T22:25:07.213Z,72.42
2019-04-26T22:27:37.835Z,72.56
2019-04-26T22:30:14.072Z,72.83
2019-04-26T22:32:44.540Z,72.95
2019-04-26T22:35:19.914Z,73.44
2019-04-26T22:37:48.209Z,73.53
2019-04-26T22:40:19.799Z,73.31
2019-04-26T22:42:54.433Z,73.69
2019-04-26T22:45:35.425Z,73.93
2019-04-26T22:48:19.161Z,74.30
2019-04-26T22:50:45.830Z,74.42
2019-04-26T22:53:16.385Z,74.62
2019-04-26T22:55:47.516Z,74.87
2019-04-26T22:58:20.660Z,75.07
2019-04-26T23:00:50.587Z,75.19
2019-04-26T23:03:21.346Z,75.26
2019-04-26T23:05:53.342Z,75.38
2019-04-26T23:08:24.014Z,75.49
2019-04-26T23:10:56.376Z,75.64
2019-04-26T23:13:42.931Z,75.87
2019-04-26T23:16:23.361Z,75.91
2019-04-26T23:18:58.689Z,76.14
2019-04-26T23:21:33.929Z,76.55
2019-04-26T23:24:04.791Z,76.40
2019-04-26T23:26:37.550Z,76.55
2019-04-26T23:29:08.631Z,76.78
2019-04-26T23:31:41.618Z,76.85
2019-04-26T23:34:14.172Z,77.15
2019-04-26T23:36:49.031Z,77.23
2019-04-26T23:39:17.520Z,77.45
2019-04-26T23:41:48.084Z,77.42
2019-04-26T23:44:18.653Z,78.05
2019-04-26T23:46:49.070Z,78.04
2019-04-26T23:49:20.523Z,78.38
2019-04-26T23:51:52.907Z,78.42
2019-04-26T23:54:23.941Z,79.09
2019-04-26T23:56:57.787Z,79.10
2019-04-26T23:59:26.742Z,78.90
